Euro Snow — VQGH9 — position and weather

sailwx.info

Track history (hours):
 
Tides and Currents Weather Stations Pressure Air Temp Water Temp Dewpoint Dewpoint Depression Visibility Wind Speed Wind Dir Waves Ship Positions

Euro Snow

Last reported at 2015-Aug-30 22:33 UTC. Time now 2015-Aug-30 22:39 UTC.
Position N 43°33' W 005°41'.

Length 133 m; draft 7 m.

Type: Cargo ship. MMSI: 235613000.

Date/timePositionNaut miles runAvg speedWind from/ knotsBaromVisibWave heightAir tempDewpointWater temp
2015-Aug-30 22:33N 43°33' W 005°41'0 0.0
2015-Aug-30 19:33N 43°33' W 005°41'0 0.0
2015-Aug-30 18:18N 43°33' W 005°41'0 0.0
2015-Aug-30 17:31N 43°33' W 005°41'0 0.0
2015-Aug-30 16:32N 43°33' W 005°41'7 7.7
2015-Aug-30 15:33N 43°41' W 005°41'1413.8
2015-Aug-30 14:31N 43°55' W 005°42'16214.4
2015-Aug-30 03:16N 46°37' W 005°50'1214.2
2015-Aug-30 02:27N 46°48' W 005°50'1514.5
2015-Aug-30 01:26N 47°03' W 005°51'1213.8
2015-Aug-30 00:33N 47°15' W 005°52'1413.7
2015-Aug-29 23:32N 47°29' W 005°52'23112.6
2015-Aug-29 05:16N 50°11' W 001°41'8016.3
2015-Aug-29 00:23N 50°33' E 000°19'1315.5
2015-Aug-28 23:33N 50°38' E 000°38'1414.5
2015-Aug-28 22:33N 50°46' E 000°56'1413.6
2015-Aug-28 21:33N 50°54' E 001°14'1413.9
2015-Aug-28 20:33N 51°03' E 001°30'1616.0
2015-Aug-28 19:33N 51°15' E 001°48'1716.7
2015-Aug-28 18:34N 51°29' E 002°03'1615.8
2015-Aug-28 17:33N 51°40' E 002°20'3014.6
2015-Aug-28 15:31N 52°01' E 002°54'2115.1
2015-Aug-28 14:06N 52°03' E 003°29'814.8
2015-Aug-28 13:33N 52°03' E 003°42'1414.1
2015-Aug-28 12:33N 51°59' E 004°04'2 1.5
2015-Aug-28 11:28N 51°59' E 004°02'0 0.0
2015-Aug-28 10:31N 51°59' E 004°02'0 0.0
2015-Aug-28 09:31N 51°59' E 004°02'0 0.0
2015-Aug-28 08:33N 51°59' E 004°02'0 0.0
2015-Aug-28 07:33N 51°59' E 004°02'0 0.0
2015-Aug-28 06:33N 51°59' E 004°02'0 0.0
2015-Aug-28 05:32N 51°59' E 004°02'0 0.0
2015-Aug-28 04:33N 51°59' E 004°02'1 1.4
2015-Aug-28 03:33N 51°59' E 004°04'1212.4
2015-Aug-28 02:33N 52°06' E 003°47'1313.1
2015-Aug-28 01:33N 52°19' E 003°48'1313.4
2015-Aug-28 00:33N 52°32' E 003°52'1212.5
2015-Aug-27 23:33N 52°44' E 003°56'1312.5
2015-Aug-27 22:33N 52°57' E 003°60'1313.1
2015-Aug-27 21:33N 53°06' E 004°16'1313.0
2015-Aug-27 20:33N 53°17' E 004°28'1413.6
2015-Aug-27 19:34N 53°29' E 004°36'1413.4
2015-Aug-27 18:31N 53°42' E 004°44'1313.2
2015-Aug-27 17:33N 53°54' E 004°53'1313.4
2015-Aug-27 16:33N 54°06' E 005°02'1513.8
2015-Aug-27 15:28N 54°19' E 005°14'7614.2
2015-Aug-27 10:09N 55°24' E 006°24'814.2
2015-Aug-27 09:33N 55°31' E 006°31'18314.1
2015-Aug-26 20:34N 57°47' E 010°14'1414.0
2015-Aug-26 19:33N 57°49' E 010°40'1414.0
2015-Aug-26 18:33N 57°44' E 011°05'1616.0
2015-Aug-26 17:33N 57°38' E 011°32'1110.3
2015-Aug-26 16:32N 57°41' E 011°51'0 0.0
2015-Aug-26 15:32N 57°41' E 011°51'0 0.0
2015-Aug-26 14:31N 57°41' E 011°51'0 0.0
2015-Aug-26 13:32N 57°41' E 011°51'0 0.0
2015-Aug-26 12:32N 57°41' E 011°51'0 0.0
2015-Aug-26 11:32N 57°41' E 011°51'0 0.0
2015-Aug-26 10:32N 57°41' E 011°51'0 0.0
2015-Aug-26 09:32N 57°41' E 011°51'0 0.0
2015-Aug-26 08:32N 57°41' E 011°51'0 0.0
2015-Aug-26 07:33N 57°41' E 011°51'8 8.0
2015-Aug-26 06:33N 57°36' E 011°40'1514.9
2015-Aug-26 05:33N 57°21' E 011°39'1515.2
2015-Aug-26 04:33N 57°06' E 011°40'1515.1
2015-Aug-26 03:33N 56°52' E 011°50'1312.9
2015-Aug-26 02:33N 56°39' E 011°45'4914.7
2015-Aug-25 23:13N 56°03' E 010°44'1015.4
2015-Aug-25 22:34N 56°06' E 010°27'8 7.5
2015-Aug-25 21:33N 56°09' E 010°14'0 0.0
2015-Aug-25 20:32N 56°09' E 010°14'1 0.6
2015-Aug-25 19:34N 56°10' E 010°15'7 7.2
2015-Aug-25 18:34N 56°06' E 010°27'4312.8
2015-Aug-25 15:10N 56°31' E 011°32'914.3
2015-Aug-25 14:33N 56°37' E 011°42'1313.3
2015-Aug-25 13:33N 56°50' E 011°49'1616.0
2015-Aug-25 12:33N 57°05' E 011°39'1615.7
2015-Aug-25 11:33N 57°20' E 011°29'1514.6
2015-Aug-25 10:33N 57°32' E 011°14'1514.8
2015-Aug-25 09:33N 57°42' E 010°54'1313.2
2015-Aug-25 08:33N 57°47' E 010°31'36215.4
2015-Aug-24 09:08N 55°10' E 000°40'915.3
2015-Aug-24 08:33N 55°06' E 000°27'1615.5
2015-Aug-24 07:32N 54°59' E 000°02'1615.5
2015-Aug-24 06:32N 54°53' W 000°23'1515.3
2015-Aug-24 05:33N 54°46' W 000°46'1514.7
2015-Aug-24 04:32N 54°39' W 001°09'2 1.0
2015-Aug-24 02:14N 54°36' W 001°09'0 0.0
2015-Aug-24 01:24N 54°36' W 001°09'0 0.0
2015-Aug-24 00:28N 54°36' W 001°09'0 0.0
2015-Aug-23 23:21N 54°36' W 001°09'0 0.0
2015-Aug-23 22:21N 54°36' W 001°09'0 0.0
2015-Aug-23 21:16N 54°36' W 001°09'0 0.0
2015-Aug-23 20:33N 54°36' W 001°09'5 5.0
2015-Aug-23 19:34N 54°40' W 001°03'1 0.9
2015-Aug-23 18:27N 54°40' W 001°01'0 0.0
2015-Aug-23 17:27N 54°40' W 001°01'0 0.0
2015-Aug-23 16:24N 54°40' W 001°01'0 0.0
2015-Aug-23 15:31N 54°40' W 001°01'8 8.3
2015-Aug-23 14:33N 54°36' W 000°49'1312.9
2015-Aug-23 13:34N 54°31' W 000°29'1312.8
2015-Aug-23 12:34N 54°22' W 000°14'1312.7
2015-Aug-23 11:33N 54°12' E 000°00'1212.4
2015-Aug-23 10:33N 54°03' E 000°14'1212.4
2015-Aug-23 09:34N 53°53' E 000°28'1312.7
2015-Aug-23 08:34N 53°44' E 000°43'1312.7
2015-Aug-23 07:34N 53°34' E 000°55'1413.5
2015-Aug-23 06:33N 53°22' E 001°07'1515.0
2015-Aug-23 05:33N 53°10' E 001°21'1414.4
2015-Aug-23 04:34N 52°58' E 001°34'1514.8
2015-Aug-23 03:33N 52°47' E 001°51'1312.5
2015-Aug-23 02:33N 52°34' E 001°54'1312.9
2015-Aug-23 01:33N 52°22' E 001°48'1312.8
2015-Aug-23 00:33N 52°10' E 001°42'1312.9
2015-Aug-22 23:33N 51°58' E 001°34'10 9.8
2015-Aug-22 22:33N 51°57' E 001°18'0 0.1
2015-Aug-22 21:33N 51°57' E 001°18'0 0.0
2015-Aug-22 20:33N 51°57' E 001°18'0 0.0
2015-Aug-22 19:33N 51°57' E 001°18'0 0.0
2015-Aug-22 18:33N 51°57' E 001°18'0 0.0
2015-Aug-22 17:33N 51°57' E 001°18'0 0.0
2015-Aug-22 16:33N 51°57' E 001°18'0 0.0
2015-Aug-22 15:33N 51°57' E 001°18'0 0.0
2015-Aug-22 14:33N 51°57' E 001°18'0 0.0
2015-Aug-22 13:33N 51°57' E 001°18'0 0.0
2015-Aug-22 12:33N 51°57' E 001°18'0 0.0
2015-Aug-22 11:33N 51°57' E 001°18'0 0.0
2015-Aug-22 10:33N 51°57' E 001°18'0 0.0
2015-Aug-22 09:33N 51°57' E 001°18'0 0.0
2015-Aug-22 08:33N 51°57' E 001°18'0 0.0
2015-Aug-22 07:33N 51°57' E 001°18'0 0.0
2015-Aug-22 06:32N 51°57' E 001°18'0 0.0
2015-Aug-22 05:32N 51°57' E 001°18'6 5.9
2015-Aug-22 04:33N 51°56' E 001°28'1212.2
2015-Aug-22 03:33N 51°51' E 001°45'1212.2
2015-Aug-22 02:34N 51°39' E 001°49'1212.4
2015-Aug-22 01:33N 51°27' E 001°45'1212.3
2015-Aug-22 00:33N 51°15' E 001°40'1110.8
2015-Aug-21 23:33N 51°04' E 001°37'1111.3
2015-Aug-21 22:33N 50°56' E 001°25'1211.6
2015-Aug-21 21:33N 50°45' E 001°20'1111.5
2015-Aug-21 20:33N 50°36' E 001°08'1212.0
2015-Aug-21 19:33N 50°30' E 000°51'1312.7
2015-Aug-21 18:33N 50°25' E 000°33'2812.2
2015-Aug-21 16:14N 50°19' W 000°10'912.0
2015-Aug-21 15:29N 50°16' W 000°24'1212.7
2015-Aug-21 14:33N 50°12' W 000°41'1413.7
2015-Aug-21 13:33N 50°08' W 001°02'1714.9
2015-Aug-21 12:26N 50°03' W 001°27'  
Track history (hours):
 
Tides and Currents Weather Stations Pressure Air Temp Water Temp Dewpoint Dewpoint Depression Visibility Wind Speed Wind Dir Waves Ship Positions

Euro Snow

Last reported at 2015-Aug-30 22:33 UTC. Time now 2015-Aug-30 22:39 UTC.
Position N 43°33' W 005°41'.

Length 133 m; draft 7 m.

Type: Cargo ship. MMSI: 235613000.

Date/timePositionNaut miles runAvg speedWind from/ knotsBaromVisibWave heightAir tempDewpointWater temp
2015-Aug-30 22:33N 43°33' W 005°41'0 0.0
2015-Aug-30 19:33N 43°33' W 005°41'0 0.0
2015-Aug-30 18:18N 43°33' W 005°41'0 0.0
2015-Aug-30 17:31N 43°33' W 005°41'0 0.0
2015-Aug-30 16:32N 43°33' W 005°41'7 7.7
2015-Aug-30 15:33N 43°41' W 005°41'1413.8
2015-Aug-30 14:31N 43°55' W 005°42'16214.4
2015-Aug-30 03:16N 46°37' W 005°50'1214.2
2015-Aug-30 02:27N 46°48' W 005°50'1514.5
2015-Aug-30 01:26N 47°03' W 005°51'1213.8
2015-Aug-30 00:33N 47°15' W 005°52'1413.7
2015-Aug-29 23:32N 47°29' W 005°52'23112.6
2015-Aug-29 05:16N 50°11' W 001°41'8016.3
2015-Aug-29 00:23N 50°33' E 000°19'1315.5
2015-Aug-28 23:33N 50°38' E 000°38'1414.5
2015-Aug-28 22:33N 50°46' E 000°56'1413.6
2015-Aug-28 21:33N 50°54' E 001°14'1413.9
2015-Aug-28 20:33N 51°03' E 001°30'1616.0
2015-Aug-28 19:33N 51°15' E 001°48'1716.7
2015-Aug-28 18:34N 51°29' E 002°03'1615.8
2015-Aug-28 17:33N 51°40' E 002°20'3014.6
2015-Aug-28 15:31N 52°01' E 002°54'2115.1
2015-Aug-28 14:06N 52°03' E 003°29'814.8
2015-Aug-28 13:33N 52°03' E 003°42'1414.1
2015-Aug-28 12:33N 51°59' E 004°04'2 1.5
2015-Aug-28 11:28N 51°59' E 004°02'0 0.0
2015-Aug-28 10:31N 51°59' E 004°02'0 0.0
2015-Aug-28 09:31N 51°59' E 004°02'0 0.0
2015-Aug-28 08:33N 51°59' E 004°02'0 0.0
2015-Aug-28 07:33N 51°59' E 004°02'0 0.0
2015-Aug-28 06:33N 51°59' E 004°02'0 0.0
2015-Aug-28 05:32N 51°59' E 004°02'0 0.0
2015-Aug-28 04:33N 51°59' E 004°02'1 1.4
2015-Aug-28 03:33N 51°59' E 004°04'1212.4
2015-Aug-28 02:33N 52°06' E 003°47'1313.1
2015-Aug-28 01:33N 52°19' E 003°48'1313.4
2015-Aug-28 00:33N 52°32' E 003°52'1212.5
2015-Aug-27 23:33N 52°44' E 003°56'1312.5
2015-Aug-27 22:33N 52°57' E 003°60'1313.1
2015-Aug-27 21:33N 53°06' E 004°16'1313.0
2015-Aug-27 20:33N 53°17' E 004°28'1413.6
2015-Aug-27 19:34N 53°29' E 004°36'1413.4
2015-Aug-27 18:31N 53°42' E 004°44'1313.2
2015-Aug-27 17:33N 53°54' E 004°53'1313.4
2015-Aug-27 16:33N 54°06' E 005°02'1513.8
2015-Aug-27 15:28N 54°19' E 005°14'7614.2
2015-Aug-27 10:09N 55°24' E 006°24'814.2
2015-Aug-27 09:33N 55°31' E 006°31'18314.1
2015-Aug-26 20:34N 57°47' E 010°14'1414.0
2015-Aug-26 19:33N 57°49' E 010°40'1414.0
2015-Aug-26 18:33N 57°44' E 011°05'1616.0
2015-Aug-26 17:33N 57°38' E 011°32'1110.3
2015-Aug-26 16:32N 57°41' E 011°51'0 0.0
2015-Aug-26 15:32N 57°41' E 011°51'0 0.0
2015-Aug-26 14:31N 57°41' E 011°51'0 0.0
2015-Aug-26 13:32N 57°41' E 011°51'0 0.0
2015-Aug-26 12:32N 57°41' E 011°51'0 0.0
2015-Aug-26 11:32N 57°41' E 011°51'0 0.0
2015-Aug-26 10:32N 57°41' E 011°51'0 0.0
2015-Aug-26 09:32N 57°41' E 011°51'0 0.0
2015-Aug-26 08:32N 57°41' E 011°51'0 0.0
2015-Aug-26 07:33N 57°41' E 011°51'8 8.0
2015-Aug-26 06:33N 57°36' E 011°40'1514.9
2015-Aug-26 05:33N 57°21' E 011°39'1515.2
2015-Aug-26 04:33N 57°06' E 011°40'1515.1
2015-Aug-26 03:33N 56°52' E 011°50'1312.9
2015-Aug-26 02:33N 56°39' E 011°45'4914.7
2015-Aug-25 23:13N 56°03' E 010°44'1015.4
2015-Aug-25 22:34N 56°06' E 010°27'8 7.5
2015-Aug-25 21:33N 56°09' E 010°14'0 0.0
2015-Aug-25 20:32N 56°09' E 010°14'1 0.6
2015-Aug-25 19:34N 56°10' E 010°15'7 7.2
2015-Aug-25 18:34N 56°06' E 010°27'4312.8
2015-Aug-25 15:10N 56°31' E 011°32'914.3
2015-Aug-25 14:33N 56°37' E 011°42'1313.3
2015-Aug-25 13:33N 56°50' E 011°49'1616.0
2015-Aug-25 12:33N 57°05' E 011°39'1615.7
2015-Aug-25 11:33N 57°20' E 011°29'1514.6
2015-Aug-25 10:33N 57°32' E 011°14'1514.8
2015-Aug-25 09:33N 57°42' E 010°54'1313.2
2015-Aug-25 08:33N 57°47' E 010°31'36215.4
2015-Aug-24 09:08N 55°10' E 000°40'915.3
2015-Aug-24 08:33N 55°06' E 000°27'1615.5
2015-Aug-24 07:32N 54°59' E 000°02'1615.5
2015-Aug-24 06:32N 54°53' W 000°23'1515.3
2015-Aug-24 05:33N 54°46' W 000°46'1514.7
2015-Aug-24 04:32N 54°39' W 001°09'2 1.0
2015-Aug-24 02:14N 54°36' W 001°09'0 0.0
2015-Aug-24 01:24N 54°36' W 001°09'0 0.0
2015-Aug-24 00:28N 54°36' W 001°09'0 0.0
2015-Aug-23 23:21N 54°36' W 001°09'0 0.0
2015-Aug-23 22:21N 54°36' W 001°09'0 0.0
2015-Aug-23 21:16N 54°36' W 001°09'0 0.0
2015-Aug-23 20:33N 54°36' W 001°09'5 5.0
2015-Aug-23 19:34N 54°40' W 001°03'1 0.9
2015-Aug-23 18:27N 54°40' W 001°01'0 0.0
2015-Aug-23 17:27N 54°40' W 001°01'0 0.0
2015-Aug-23 16:24N 54°40' W 001°01'0 0.0
2015-Aug-23 15:31N 54°40' W 001°01'8 8.3
2015-Aug-23 14:33N 54°36' W 000°49'1312.9
2015-Aug-23 13:34N 54°31' W 000°29'1312.8
2015-Aug-23 12:34N 54°22' W 000°14'1312.7
2015-Aug-23 11:33N 54°12' E 000°00'1212.4
2015-Aug-23 10:33N 54°03' E 000°14'1212.4
2015-Aug-23 09:34N 53°53' E 000°28'1312.7
2015-Aug-23 08:34N 53°44' E 000°43'1312.7
2015-Aug-23 07:34N 53°34' E 000°55'1413.5
2015-Aug-23 06:33N 53°22' E 001°07'1515.0
2015-Aug-23 05:33N 53°10' E 001°21'1414.4
2015-Aug-23 04:34N 52°58' E 001°34'1514.8
2015-Aug-23 03:33N 52°47' E 001°51'1312.5
2015-Aug-23 02:33N 52°34' E 001°54'1312.9
2015-Aug-23 01:33N 52°22' E 001°48'1312.8
2015-Aug-23 00:33N 52°10' E 001°42'1312.9
2015-Aug-22 23:33N 51°58' E 001°34'10 9.8
2015-Aug-22 22:33N 51°57' E 001°18'0 0.1
2015-Aug-22 21:33N 51°57' E 001°18'0 0.0
2015-Aug-22 20:33N 51°57' E 001°18'0 0.0
2015-Aug-22 19:33N 51°57' E 001°18'0 0.0
2015-Aug-22 18:33N 51°57' E 001°18'0 0.0
2015-Aug-22 17:33N 51°57' E 001°18'0 0.0
2015-Aug-22 16:33N 51°57' E 001°18'0 0.0
2015-Aug-22 15:33N 51°57' E 001°18'0 0.0
2015-Aug-22 14:33N 51°57' E 001°18'0 0.0
2015-Aug-22 13:33N 51°57' E 001°18'0 0.0
2015-Aug-22 12:33N 51°57' E 001°18'0 0.0
2015-Aug-22 11:33N 51°57' E 001°18'0 0.0
2015-Aug-22 10:33N 51°57' E 001°18'0 0.0
2015-Aug-22 09:33N 51°57' E 001°18'0 0.0
2015-Aug-22 08:33N 51°57' E 001°18'0 0.0
2015-Aug-22 07:33N 51°57' E 001°18'0 0.0
2015-Aug-22 06:32N 51°57' E 001°18'0 0.0
2015-Aug-22 05:32N 51°57' E 001°18'6 5.9
2015-Aug-22 04:33N 51°56' E 001°28'1212.2
2015-Aug-22 03:33N 51°51' E 001°45'1212.2
2015-Aug-22 02:34N 51°39' E 001°49'1212.4
2015-Aug-22 01:33N 51°27' E 001°45'1212.3
2015-Aug-22 00:33N 51°15' E 001°40'1110.8
2015-Aug-21 23:33N 51°04' E 001°37'1111.3
2015-Aug-21 22:33N 50°56' E 001°25'1211.6
2015-Aug-21 21:33N 50°45' E 001°20'1111.5
2015-Aug-21 20:33N 50°36' E 001°08'1212.0
2015-Aug-21 19:33N 50°30' E 000°51'1312.7
2015-Aug-21 18:33N 50°25' E 000°33'2812.2
2015-Aug-21 16:14N 50°19' W 000°10'912.0
2015-Aug-21 15:29N 50°16' W 000°24'1212.7
2015-Aug-21 14:33N 50°12' W 000°41'1413.7
2015-Aug-21 13:33N 50°08' W 001°02'1714.9
2015-Aug-21 12:26N 50°03' W 001°27'  

Dump ship's entire track history